createdAt,value
2024-03-05T00:00:16.469Z,605.00
2024-03-05T00:01:16.603Z,606.00
2024-03-05T00:02:16.614Z,607.00
2024-03-05T00:03:16.644Z,607.00
2024-03-05T00:04:16.698Z,600.00
2024-03-05T00:05:16.752Z,606.00
2024-03-05T00:06:17.416Z,605.00
2024-03-05T00:07:16.941Z,607.00
2024-03-05T00:08:16.886Z,605.00
2024-03-05T00:09:16.938Z,608.00
2024-03-05T00:10:16.976Z,604.00
2024-03-05T00:11:17.128Z,604.00
2024-03-05T00:12:17.072Z,606.00
2024-03-05T00:13:17.178Z,607.00
2024-03-05T00:14:17.178Z,608.00
2024-03-05T00:15:17.227Z,607.00
2024-03-05T00:16:17.274Z,606.00
2024-03-05T00:17:17.343Z,608.00
2024-03-05T00:18:17.426Z,606.00
2024-03-05T00:19:17.425Z,604.00
2024-03-05T00:20:17.484Z,606.00
2024-03-05T00:21:17.499Z,603.00
2024-03-05T00:22:17.557Z,605.00
2024-03-05T00:23:17.589Z,602.00
2024-03-05T00:24:17.640Z,604.00
2024-03-05T00:25:17.865Z,604.00
2024-03-05T00:26:17.740Z,603.00
2024-03-05T00:27:17.789Z,605.00
2024-03-05T00:28:17.876Z,604.00
2024-03-05T00:29:17.900Z,607.00
2024-03-05T00:30:17.945Z,604.00
2024-03-05T00:31:18.011Z,607.00
2024-03-05T00:32:18.067Z,606.00
2024-03-05T00:33:18.139Z,604.00
2024-03-05T00:34:18.169Z,602.00
2024-03-05T00:35:18.338Z,605.00
2024-03-05T00:36:18.250Z,607.00
2024-03-05T00:37:18.327Z,606.00
2024-03-05T00:38:24.870Z,606.00
2024-03-05T00:39:19.356Z,606.00
2024-03-05T00:40:18.369Z,606.00
2024-03-05T00:41:18.380Z,605.00
2024-03-05T00:42:18.341Z,607.00
2024-03-05T00:43:18.418Z,605.00
2024-03-05T00:44:18.347Z,605.00
2024-03-05T00:45:18.382Z,603.00
2024-03-05T00:46:18.382Z,604.00
2024-03-05T00:47:18.363Z,603.00
2024-03-05T00:48:18.363Z,604.00
2024-03-05T00:49:18.420Z,600.00
2024-03-05T00:50:18.452Z,606.00
2024-03-05T00:51:18.519Z,606.00
2024-03-05T00:52:18.567Z,604.00
2024-03-05T00:53:18.609Z,605.00
2024-03-05T00:54:18.641Z,606.00
2024-03-05T00:55:18.714Z,607.00
2024-03-05T00:56:18.733Z,605.00
2024-03-05T00:57:18.811Z,606.00
2024-03-05T00:58:18.941Z,604.00
2024-03-05T00:59:18.918Z,603.00
2024-03-05T01:00:19.071Z,602.00
2024-03-05T01:01:19.045Z,606.00
2024-03-05T01:02:19.113Z,601.00
2024-03-05T01:03:19.117Z,600.00
2024-03-05T01:04:19.249Z,607.00
2024-03-05T01:05:19.228Z,607.00
2024-03-05T01:06:19.266Z,606.00
2024-03-05T01:07:19.463Z,607.00
2024-03-05T01:08:19.353Z,609.00
2024-03-05T01:09:19.435Z,607.00
2024-03-05T01:10:19.468Z,610.00
2024-03-05T01:11:19.528Z,608.00
2024-03-05T01:12:19.526Z,605.00
2024-03-05T01:13:19.624Z,605.00
2024-03-05T01:14:19.640Z,605.00
2024-03-05T01:15:19.675Z,600.00
2024-03-05T01:16:19.749Z,606.00
2024-03-05T01:17:19.766Z,605.00
2024-03-05T01:18:19.827Z,606.00
2024-03-05T01:19:19.893Z,603.00
2024-03-05T01:20:19.971Z,603.00
2024-03-05T01:21:19.968Z,607.00
2024-03-05T01:22:20.052Z,603.00
2024-03-05T01:23:20.069Z,603.00
2024-03-05T01:24:20.148Z,604.00
2024-03-05T01:25:20.226Z,601.00
2024-03-05T01:26:20.240Z,602.00
2024-03-05T01:27:20.268Z,604.00
2024-03-05T01:28:20.387Z,604.00
2024-03-05T01:29:20.459Z,607.00
2024-03-05T01:30:20.539Z,605.00
2024-03-05T01:31:20.515Z,605.00
2024-03-05T01:32:20.553Z,604.00
2024-03-05T01:33:20.611Z,601.00
2024-03-05T01:34:20.688Z,603.00
2024-03-05T01:35:20.697Z,605.00
2024-03-05T01:36:20.786Z,607.00
2024-03-05T01:37:20.882Z,606.00
2024-03-05T01:38:20.873Z,607.00
2024-03-05T01:39:20.899Z,605.00
2024-03-05T01:40:21.070Z,606.00
2024-03-05T01:41:21.045Z,606.00
2024-03-05T01:42:21.097Z,606.00
2024-03-05T01:43:21.163Z,606.00
2024-03-05T01:44:21.175Z,604.00
2024-03-05T01:45:21.245Z,605.00
2024-03-05T01:46:21.335Z,605.00
2024-03-05T01:47:21.329Z,607.00
2024-03-05T01:48:21.392Z,605.00
2024-03-05T01:49:21.502Z,603.00
2024-03-05T01:50:21.478Z,605.00
2024-03-05T01:51:21.520Z,604.00
2024-03-05T01:52:21.630Z,605.00
2024-03-05T01:53:21.643Z,605.00
2024-03-05T01:54:21.674Z,602.00
2024-03-05T01:55:21.762Z,604.00
2024-03-05T01:56:21.779Z,605.00
2024-03-05T01:57:21.844Z,604.00
2024-03-05T01:58:21.910Z,604.00
2024-03-05T01:59:21.914Z,603.00
2024-03-05T02:00:22.343Z,602.00
2024-03-05T02:01:22.133Z,601.00
2024-03-05T02:02:27.021Z,604.00
2024-03-05T02:03:22.108Z,604.00
2024-03-05T02:04:22.177Z,604.00
2024-03-05T02:05:22.075Z,604.00
2024-03-05T02:06:22.110Z,604.00
2024-03-05T02:07:22.091Z,602.00
2024-03-05T02:08:22.136Z,601.00
2024-03-05T02:09:22.078Z,601.00
2024-03-05T02:10:22.137Z,602.00
2024-03-05T02:11:22.136Z,600.00
2024-03-05T02:12:22.218Z,602.00
2024-03-05T02:13:22.234Z,602.00
2024-03-05T02:14:22.260Z,605.00
2024-03-05T02:15:22.297Z,605.00
2024-03-05T02:16:22.375Z,602.00
2024-03-05T02:17:22.398Z,603.00
2024-03-05T02:18:22.431Z,604.00
2024-03-05T02:19:22.507Z,604.00
2024-03-05T02:20:22.521Z,603.00
2024-03-05T02:21:22.583Z,603.00
2024-03-05T02:22:22.641Z,601.00
2024-03-05T02:23:22.667Z,602.00
2024-03-05T02:24:22.748Z,601.00
2024-03-05T02:25:22.802Z,604.00
2024-03-05T02:26:22.829Z,603.00
2024-03-05T02:27:27.461Z,603.00
2024-03-05T02:28:23.926Z,603.00
2024-03-05T02:29:22.882Z,603.00
2024-03-05T02:30:22.886Z,602.00
2024-03-05T02:31:22.923Z,603.00
2024-03-05T02:32:22.903Z,604.00
2024-03-05T02:33:22.907Z,602.00
2024-03-05T02:34:22.926Z,602.00
2024-03-05T02:35:22.890Z,603.00
2024-03-05T02:36:22.905Z,604.00
2024-03-05T02:37:22.938Z,604.00
2024-03-05T02:38:22.952Z,602.00
2024-03-05T02:39:23.025Z,602.00
2024-03-05T02:40:23.080Z,605.00
2024-03-05T02:41:23.119Z,603.00
2024-03-05T02:42:23.183Z,602.00
2024-03-05T02:43:23.286Z,602.00
2024-03-05T02:44:23.303Z,602.00
2024-03-05T02:45:23.349Z,603.00
2024-03-05T02:46:23.504Z,602.00
2024-03-05T02:47:23.486Z,604.00
2024-03-05T02:48:23.540Z,601.00
2024-03-05T02:49:23.592Z,602.00
2024-03-05T02:50:23.610Z,605.00
2024-03-05T02:51:23.661Z,602.00
2024-03-05T02:52:23.766Z,604.00
2024-03-05T02:53:23.767Z,603.00
2024-03-05T02:54:23.798Z,603.00
2024-03-05T02:55:23.950Z,602.00
2024-03-05T02:56:23.925Z,600.00
2024-03-05T02:57:24.034Z,602.00
2024-03-05T02:58:24.052Z,603.00
2024-03-05T02:59:24.089Z,602.00
2024-03-05T03:00:24.197Z,600.00
2024-03-05T03:01:24.204Z,600.00
2024-03-05T03:02:24.264Z,604.00
2024-03-05T03:03:24.346Z,602.00
2024-03-05T03:04:24.378Z,604.00
2024-03-05T03:05:24.389Z,602.00
2024-03-05T03:06:24.428Z,602.00
2024-03-05T03:07:24.536Z,602.00
2024-03-05T03:08:24.607Z,603.00
2024-03-05T03:09:24.629Z,605.00
2024-03-05T03:10:24.723Z,603.00
2024-03-05T03:11:24.725Z,604.00
2024-03-05T03:12:24.739Z,601.00
2024-03-05T03:13:24.830Z,602.00
2024-03-05T03:14:24.836Z,602.00
2024-03-05T03:15:24.893Z,600.00
2024-03-05T03:16:24.987Z,601.00
2024-03-05T03:17:25.011Z,602.00
2024-03-05T03:18:25.133Z,601.00
2024-03-05T03:19:25.127Z,602.00
2024-03-05T03:20:25.143Z,600.00
2024-03-05T03:21:25.187Z,601.00
2024-03-05T03:22:25.315Z,603.00
2024-03-05T03:23:25.288Z,601.00
2024-03-05T03:24:25.337Z,602.00
2024-03-05T03:25:25.406Z,601.00
2024-03-05T03:26:25.495Z,601.00
2024-03-05T03:27:25.525Z,601.00
2024-03-05T03:28:25.618Z,602.00
2024-03-05T03:29:25.615Z,600.00
2024-03-05T03:30:25.654Z,601.00
2024-03-05T03:31:25.828Z,603.00
2024-03-05T03:32:25.794Z,604.00
2024-03-05T03:33:25.781Z,604.00
2024-03-05T03:34:25.906Z,603.00
2024-03-05T03:35:25.889Z,601.00
2024-03-05T03:36:25.995Z,601.00
2024-03-05T03:37:26.023Z,601.00
2024-03-05T03:38:26.041Z,600.00
2024-03-05T03:39:26.367Z,602.00
2024-03-05T03:40:26.183Z,602.00
2024-03-05T03:41:26.186Z,604.00
2024-03-05T03:42:26.241Z,602.00
2024-03-05T03:43:26.331Z,601.00
2024-03-05T03:44:26.327Z,602.00
2024-03-05T03:45:26.406Z,602.00
2024-03-05T03:46:26.479Z,604.00
2024-03-05T03:47:26.508Z,601.00
2024-03-05T03:48:26.536Z,602.00
2024-03-05T03:49:26.608Z,603.00
2024-03-05T03:50:26.614Z,602.00
2024-03-05T03:51:26.682Z,601.00
2024-03-05T03:52:26.764Z,603.00
2024-03-05T03:53:26.816Z,605.00
2024-03-05T03:54:26.841Z,602.00
2024-03-05T03:55:26.866Z,601.00
2024-03-05T03:56:26.911Z,602.00
2024-03-05T03:57:26.997Z,602.00
2024-03-05T03:58:27.030Z,604.00
2024-03-05T03:59:27.074Z,601.00
2024-03-05T04:00:27.126Z,601.00
2024-03-05T04:01:27.185Z,601.00
2024-03-05T04:02:29.902Z,601.00
2024-03-05T04:03:27.236Z,604.00
2024-03-05T04:04:27.268Z,603.00
2024-03-05T04:05:27.208Z,604.00
2024-03-05T04:06:27.224Z,601.00
2024-03-05T04:07:27.233Z,602.00
2024-03-05T04:08:27.224Z,603.00
2024-03-05T04:09:27.560Z,604.00
2024-03-05T04:10:27.275Z,600.00
2024-03-05T04:11:27.247Z,602.00
2024-03-05T04:12:27.212Z,603.00
2024-03-05T04:13:27.233Z,602.00
2024-03-05T04:14:27.216Z,602.00
2024-03-05T04:15:27.216Z,602.00
2024-03-05T04:16:27.266Z,601.00
2024-03-05T04:17:29.905Z,603.00
2024-03-05T04:18:27.220Z,603.00
2024-03-05T04:19:27.258Z,604.00
2024-03-05T04:20:27.222Z,604.00
2024-03-05T04:21:27.271Z,603.00
2024-03-05T04:22:27.278Z,603.00
2024-03-05T04:23:27.245Z,603.00
2024-03-05T04:24:27.296Z,603.00
2024-03-05T04:25:27.230Z,603.00
2024-03-05T04:26:27.235Z,604.00
2024-03-05T04:27:29.920Z,605.00
2024-03-05T04:28:27.256Z,605.00
2024-03-05T04:29:27.235Z,604.00
2024-03-05T04:30:27.250Z,601.00
2024-03-05T04:31:27.271Z,603.00
2024-03-05T04:32:27.302Z,602.00
2024-03-05T04:33:27.310Z,602.00
2024-03-05T04:34:27.267Z,601.00
2024-03-05T04:35:27.262Z,600.00
2024-03-05T04:36:27.330Z,600.00
2024-03-05T04:37:27.272Z,603.00
2024-03-05T04:38:27.263Z,603.00
2024-03-05T04:39:27.249Z,601.00
2024-03-05T04:40:27.344Z,602.00
2024-03-05T04:41:27.257Z,601.00
2024-03-05T04:42:27.312Z,603.00
2024-03-05T04:43:27.351Z,604.00
2024-03-05T04:44:27.269Z,602.00
2024-03-05T04:45:27.256Z,603.00
2024-03-05T04:46:27.311Z,601.00
2024-03-05T04:47:27.321Z,600.00
2024-03-05T04:48:27.252Z,602.00
2024-03-05T04:49:27.258Z,603.00
2024-03-05T04:50:27.256Z,602.00
2024-03-05T04:51:27.254Z,601.00
2024-03-05T04:52:28.749Z,602.00
2024-03-05T04:53:27.294Z,602.00
2024-03-05T04:54:27.269Z,602.00
2024-03-05T04:55:27.253Z,602.00
2024-03-05T04:56:27.261Z,602.00
2024-03-05T04:57:27.257Z,602.00
2024-03-05T04:58:27.289Z,603.00
2024-03-05T04:59:27.272Z,600.00
2024-03-05T05:00:34.965Z,600.00
2024-03-05T05:01:35.061Z,600.00
2024-03-05T05:02:34.956Z,600.00
2024-03-05T05:03:34.970Z,600.00
2024-03-05T05:04:34.999Z,600.00
2024-03-05T05:05:34.981Z,602.00
2024-03-05T05:06:34.962Z,602.00
2024-03-05T05:07:35.009Z,600.00
2024-03-05T05:08:34.972Z,600.00
2024-03-05T05:09:34.970Z,604.00
2024-03-05T05:10:35.018Z,601.00
2024-03-05T05:11:35.001Z,604.00
2024-03-05T05:12:34.950Z,604.00
2024-03-05T05:13:35.008Z,600.00
2024-03-05T05:14:38.672Z,605.00
2024-03-05T05:15:35.012Z,605.00
2024-03-05T05:16:34.966Z,606.00
2024-03-05T05:17:34.989Z,604.00
2024-03-05T05:18:34.962Z,608.00
2024-03-05T05:19:35.007Z,604.00
2024-03-05T05:20:34.975Z,604.00
2024-03-05T05:21:34.983Z,607.00
2024-03-05T05:22:34.974Z,605.00
2024-03-05T05:23:34.965Z,604.00
2024-03-05T05:24:34.969Z,603.00
2024-03-05T05:25:34.989Z,604.00
2024-03-05T05:26:34.975Z,606.00
2024-03-05T05:27:34.977Z,603.00
2024-03-05T05:28:35.004Z,604.00
2024-03-05T05:29:40.317Z,603.00
2024-03-05T05:30:38.334Z,603.00
2024-03-05T05:31:35.003Z,604.00
2024-03-05T05:32:35.000Z,606.00
2024-03-05T05:33:34.993Z,608.00
2024-03-05T05:34:35.021Z,608.00
2024-03-05T05:35:34.985Z,607.00
2024-03-05T05:36:34.996Z,607.00
2024-03-05T05:37:35.054Z,608.00
2024-03-05T05:38:34.995Z,610.00
2024-03-05T05:39:35.003Z,606.00
2024-03-05T05:40:35.022Z,608.00
2024-03-05T05:41:34.991Z,605.00
2024-03-05T05:42:34.992Z,608.00
2024-03-05T05:43:35.002Z,606.00
2024-03-05T05:44:35.007Z,608.00
2024-03-05T05:45:35.003Z,606.00
2024-03-05T05:46:35.120Z,605.00
2024-03-05T05:47:35.057Z,603.00
2024-03-05T05:48:35.041Z,601.00
2024-03-05T05:49:35.027Z,608.00
2024-03-05T05:50:35.000Z,604.00
2024-03-05T05:51:34.986Z,607.00
2024-03-05T05:52:35.026Z,604.00
2024-03-05T05:53:34.992Z,609.00
2024-03-05T05:54:34.996Z,605.00
2024-03-05T05:55:34.990Z,603.00
2024-03-05T05:56:34.998Z,609.00
2024-03-05T05:57:35.004Z,609.00
2024-03-05T05:58:35.006Z,609.00
2024-03-05T05:59:35.035Z,607.00
2024-03-05T06:00:35.503Z,605.00
2024-03-05T06:01:35.065Z,605.00
2024-03-05T06:02:35.081Z,608.00
2024-03-05T06:03:35.016Z,604.00
2024-03-05T06:04:35.029Z,611.00
2024-03-05T06:05:35.002Z,609.00
2024-03-05T06:06:35.016Z,609.00
2024-03-05T06:07:35.065Z,605.00
2024-03-05T06:08:35.091Z,606.00
2024-03-05T06:09:35.140Z,607.00
2024-03-05T06:10:35.285Z,609.00
2024-03-05T06:11:35.269Z,609.00
2024-03-05T06:12:35.257Z,603.00
2024-03-05T06:13:35.364Z,605.00
2024-03-05T06:14:35.354Z,602.00
2024-03-05T06:15:35.445Z,601.00
2024-03-05T06:16:36.085Z,605.00
2024-03-05T06:17:35.555Z,611.00
2024-03-05T06:18:35.542Z,608.00
2024-03-05T06:19:35.661Z,609.00
2024-03-05T06:20:35.667Z,602.00
2024-03-05T06:21:35.692Z,606.00
2024-03-05T06:22:35.788Z,609.00
2024-03-05T06:23:35.786Z,610.00
2024-03-05T06:24:35.812Z,608.00
2024-03-05T06:25:35.966Z,610.00
2024-03-05T06:26:35.919Z,608.00
2024-03-05T06:27:35.984Z,603.00
2024-03-05T06:28:36.048Z,609.00
2024-03-05T06:29:36.057Z,607.00
2024-03-05T06:30:36.101Z,609.00
2024-03-05T06:31:36.197Z,615.00
2024-03-05T06:32:36.224Z,610.00
2024-03-05T06:33:36.248Z,614.00
2024-03-05T06:34:36.354Z,617.00
2024-03-05T06:35:36.362Z,610.00
2024-03-05T06:36:36.382Z,614.00
2024-03-05T06:37:36.505Z,615.00
2024-03-05T06:38:36.470Z,618.00
2024-03-05T06:39:36.523Z,617.00
2024-03-05T06:40:36.585Z,616.00
2024-03-05T06:41:36.594Z,613.00
2024-03-05T06:42:36.644Z,615.00
2024-03-05T06:43:36.717Z,621.00
2024-03-05T06:44:36.715Z,613.00
2024-03-05T06:45:37.273Z,618.00
2024-03-05T06:46:36.861Z,621.00
2024-03-05T06:47:36.993Z,624.00
2024-03-05T06:48:36.909Z,626.00
2024-03-05T06:49:36.946Z,628.00
2024-03-05T06:50:36.955Z,627.00
2024-03-05T06:51:36.999Z,633.00
2024-03-05T06:52:37.044Z,633.00
2024-03-05T06:53:37.092Z,633.00
2024-03-05T06:54:37.101Z,641.00
2024-03-05T06:55:37.196Z,638.00
2024-03-05T06:56:37.217Z,641.00
2024-03-05T06:57:37.214Z,642.00
2024-03-05T06:58:37.264Z,643.00
2024-03-05T06:59:37.342Z,639.00
2024-03-05T07:00:37.334Z,639.00
2024-03-05T07:01:37.459Z,646.00
2024-03-05T07:02:37.386Z,643.00
2024-03-05T07:03:37.452Z,645.00
2024-03-05T07:04:37.480Z,650.00
2024-03-05T07:05:37.488Z,647.00
2024-03-05T07:06:37.529Z,649.00
2024-03-05T07:07:37.578Z,652.00
2024-03-05T07:08:37.559Z,657.00
2024-03-05T07:09:37.600Z,652.00
2024-03-05T07:10:37.659Z,656.00
2024-03-05T07:11:37.665Z,653.00
2024-03-05T07:12:37.686Z,658.00
2024-03-05T07:13:37.845Z,659.00
2024-03-05T07:14:37.742Z,656.00
2024-03-05T07:15:37.790Z,661.00
2024-03-05T07:16:37.847Z,659.00
2024-03-05T07:17:37.800Z,658.00
2024-03-05T07:18:37.827Z,658.00
2024-03-05T07:19:38.820Z,663.00
2024-03-05T07:20:37.838Z,658.00
2024-03-05T07:21:37.903Z,662.00
2024-03-05T07:22:37.921Z,658.00
2024-03-05T07:23:37.929Z,656.00
2024-03-05T07:24:37.939Z,658.00
2024-03-05T07:25:38.008Z,660.00
2024-03-05T07:26:38.691Z,660.00
2024-03-05T07:27:38.035Z,661.00
2024-03-05T07:28:38.043Z,661.00
2024-03-05T07:29:38.072Z,657.00
2024-03-05T07:30:38.083Z,660.00
2024-03-05T07:31:38.184Z,657.00
2024-03-05T07:32:38.157Z,661.00
2024-03-05T07:33:38.185Z,660.00
2024-03-05T07:34:38.216Z,661.00
2024-03-05T07:35:38.203Z,662.00
2024-03-05T07:36:38.813Z,661.00
2024-03-05T07:37:38.267Z,656.00
2024-03-05T07:38:38.239Z,659.00
2024-03-05T07:39:38.281Z,661.00
2024-03-05T07:40:38.310Z,659.00
2024-03-05T07:41:38.433Z,653.00
2024-03-05T07:42:38.354Z,659.00
2024-03-05T07:43:38.450Z,654.00
2024-03-05T07:44:38.393Z,654.00
2024-03-05T07:45:38.427Z,658.00
2024-03-05T07:46:38.456Z,657.00
2024-03-05T07:47:38.500Z,658.00
2024-03-05T07:48:38.498Z,655.00
2024-03-05T07:49:38.563Z,656.00
2024-03-05T07:50:38.561Z,657.00
2024-03-05T07:51:44.570Z,655.00
2024-03-05T07:52:39.626Z,655.00
2024-03-05T07:53:42.231Z,655.00
2024-03-05T07:54:38.615Z,655.00
2024-03-05T07:55:45.443Z,655.00
2024-03-05T07:56:39.729Z,655.00
2024-03-05T07:57:38.605Z,657.00
2024-03-05T07:58:38.634Z,659.00
2024-03-05T07:59:38.592Z,664.00
2024-03-05T08:00:38.601Z,691.00
2024-03-05T08:01:38.725Z,690.00
2024-03-05T08:02:38.619Z,714.00
2024-03-05T08:03:38.603Z,722.00
2024-03-05T08:04:38.616Z,749.00
2024-03-05T08:05:38.608Z,748.00
2024-03-05T08:06:38.604Z,773.00
2024-03-05T08:07:38.609Z,777.00
2024-03-05T08:08:38.608Z,793.00
2024-03-05T08:09:38.614Z,825.00
2024-03-05T08:10:38.682Z,843.00
2024-03-05T08:11:38.683Z,862.00
2024-03-05T08:12:38.681Z,875.00
2024-03-05T08:13:38.750Z,898.00
2024-03-05T08:14:38.796Z,914.00
2024-03-05T08:15:38.835Z,928.00
2024-03-05T08:16:38.916Z,944.00
2024-03-05T08:17:38.991Z,965.00
2024-03-05T08:18:39.023Z,977.00
2024-03-05T08:19:39.113Z,992.00
2024-03-05T08:20:39.098Z,1012.00
2024-03-05T08:21:39.148Z,1036.00
2024-03-05T08:22:39.261Z,1055.00
2024-03-05T08:23:39.259Z,1060.00
2024-03-05T08:24:39.306Z,1071.00
2024-03-05T08:25:39.408Z,1099.00
2024-03-05T08:26:39.438Z,1101.00
2024-03-05T08:27:39.469Z,1115.00
2024-03-05T08:28:39.520Z,1130.00
2024-03-05T08:29:39.539Z,1156.00
2024-03-05T08:30:39.579Z,1171.00
2024-03-05T08:31:39.645Z,1200.00
2024-03-05T08:32:39.663Z,1207.00
2024-03-05T08:33:39.755Z,1229.00
2024-03-05T08:34:39.777Z,1242.00
2024-03-05T08:35:39.813Z,1245.00
2024-03-05T08:36:39.822Z,1264.00
2024-03-05T08:37:39.888Z,1262.00
2024-03-05T08:38:39.904Z,1282.00
2024-03-05T08:39:40.285Z,1295.00
2024-03-05T08:40:39.963Z,1315.00
2024-03-05T08:41:39.998Z,1323.00
2024-03-05T08:42:40.047Z,1337.00
2024-03-05T08:43:40.092Z,1340.00
2024-03-05T08:44:40.086Z,1356.00
2024-03-05T08:45:40.145Z,1354.00
2024-03-05T08:46:40.185Z,1377.00
2024-03-05T08:47:40.196Z,1377.00
2024-03-05T08:48:40.217Z,1383.00
2024-03-05T08:49:40.298Z,1390.00
2024-03-05T08:50:40.347Z,1397.00
2024-03-05T08:51:40.364Z,1391.00
2024-03-05T08:52:40.436Z,1395.00
2024-03-05T08:53:40.517Z,1415.00
2024-03-05T08:54:40.512Z,1413.00
2024-03-05T08:55:40.554Z,1415.00
2024-03-05T08:56:41.331Z,1430.00
2024-03-05T08:57:40.580Z,1441.00
2024-03-05T08:58:40.610Z,1439.00
2024-03-05T08:59:40.625Z,1452.00
2024-03-05T09:00:43.210Z,1464.00
2024-03-05T09:01:40.718Z,1472.00
2024-03-05T09:02:40.653Z,1475.00
2024-03-05T09:03:40.661Z,1483.00
2024-03-05T09:04:40.684Z,1495.00
2024-03-05T09:05:43.142Z,1511.00
2024-03-05T09:06:40.638Z,1512.00
2024-03-05T09:07:40.668Z,1515.00
2024-03-05T09:08:40.653Z,1522.00
2024-03-05T09:09:40.636Z,1535.00
2024-03-05T09:10:40.671Z,1561.00
2024-03-05T09:11:40.665Z,1565.00
2024-03-05T09:12:40.647Z,1564.00
2024-03-05T09:13:40.714Z,1574.00
2024-03-05T09:14:40.669Z,1579.00
2024-03-05T09:15:43.739Z,1588.00
2024-03-05T09:16:40.703Z,1589.00
2024-03-05T09:17:40.672Z,1594.00
2024-03-05T09:18:40.685Z,1600.00
2024-03-05T09:19:40.729Z,1618.00
2024-03-05T09:20:40.682Z,1636.00
2024-03-05T09:21:40.677Z,1655.00
2024-03-05T09:22:40.777Z,1662.00
2024-03-05T09:23:40.664Z,1668.00
2024-03-05T09:24:40.662Z,1675.00
2024-03-05T09:25:40.719Z,1694.00
2024-03-05T09:26:40.686Z,1705.00
2024-03-05T09:27:40.677Z,1720.00
2024-03-05T09:28:40.698Z,1716.00
2024-03-05T09:29:40.671Z,1722.00
2024-03-05T09:30:40.694Z,1725.00
2024-03-05T09:31:40.715Z,1732.00
2024-03-05T09:32:40.726Z,1746.00
2024-03-05T09:33:40.717Z,1732.00
2024-03-05T09:34:40.756Z,1649.00
2024-03-05T09:35:40.739Z,1630.00
2024-03-05T09:36:40.682Z,1603.00
2024-03-05T09:37:40.692Z,1543.00
2024-03-05T09:38:40.694Z,1513.00
2024-03-05T09:39:40.684Z,1477.00
2024-03-05T09:40:40.706Z,1447.00
2024-03-05T09:41:40.685Z,1412.00
2024-03-05T09:42:40.709Z,1397.00
2024-03-05T09:43:40.728Z,1390.00
2024-03-05T09:44:40.730Z,1367.00
2024-03-05T09:45:40.694Z,1355.00
2024-03-05T09:46:40.749Z,1343.00
2024-03-05T09:47:40.738Z,1338.00
2024-03-05T09:48:40.721Z,1337.00
2024-03-05T09:49:40.729Z,1321.00
2024-03-05T09:50:40.716Z,1323.00
2024-03-05T09:51:41.385Z,1312.00
2024-03-05T09:52:40.781Z,1321.00
2024-03-05T09:53:40.768Z,1307.00
2024-03-05T09:54:40.717Z,1313.00
2024-03-05T09:55:40.749Z,1302.00
2024-03-05T09:56:40.708Z,1302.00
2024-03-05T09:57:40.737Z,1301.00
2024-03-05T09:58:40.908Z,1297.00
2024-03-05T09:59:40.721Z,1284.00
2024-03-05T10:00:40.720Z,1292.00
2024-03-05T10:01:40.764Z,1298.00
2024-03-05T10:02:40.782Z,1288.00
2024-03-05T10:03:40.747Z,1286.00
2024-03-05T10:04:40.783Z,1285.00
2024-03-05T10:05:40.730Z,1284.00
2024-03-05T10:06:40.763Z,1280.00
2024-03-05T10:07:40.758Z,1281.00
2024-03-05T10:08:40.744Z,1281.00
2024-03-05T10:09:40.708Z,1277.00
2024-03-05T10:10:41.038Z,1279.00
2024-03-05T10:11:40.753Z,1267.00
2024-03-05T10:12:40.892Z,1267.00
2024-03-05T10:13:40.828Z,1263.00
2024-03-05T10:14:40.789Z,1269.00
2024-03-05T10:15:40.809Z,1255.00
2024-03-05T10:16:40.883Z,1259.00
2024-03-05T10:17:40.892Z,1267.00
2024-03-05T10:18:40.911Z,1255.00
2024-03-05T10:19:40.937Z,1250.00
2024-03-05T10:20:40.966Z,1245.00
2024-03-05T10:21:40.994Z,1247.00
2024-03-05T10:22:41.006Z,1249.00
2024-03-05T10:23:41.088Z,1242.00
2024-03-05T10:24:41.102Z,1245.00
2024-03-05T10:25:41.597Z,1242.00
2024-03-05T10:26:41.160Z,1243.00
2024-03-05T10:27:41.169Z,1236.00
2024-03-05T10:28:41.291Z,1225.00
2024-03-05T10:29:41.259Z,1238.00
2024-03-05T10:30:41.291Z,1229.00
2024-03-05T10:31:41.358Z,1222.00
2024-03-05T10:32:41.337Z,1222.00
2024-03-05T10:33:41.349Z,1227.00
2024-03-05T10:34:41.386Z,1225.00
2024-03-05T10:35:41.672Z,1231.00
2024-03-05T10:36:41.440Z,1227.00
2024-03-05T10:37:41.463Z,1225.00
2024-03-05T10:38:41.485Z,1208.00
2024-03-05T10:39:41.509Z,1214.00
2024-03-05T10:40:41.655Z,1219.00
2024-03-05T10:41:47.414Z,1211.00
2024-03-05T10:42:42.574Z,1212.00
2024-03-05T10:43:41.578Z,1209.00
2024-03-05T10:44:41.568Z,1211.00
2024-03-05T10:45:42.500Z,1206.00
2024-03-05T10:46:41.605Z,1211.00
2024-03-05T10:47:41.597Z,1203.00
2024-03-05T10:48:41.599Z,1205.00
2024-03-05T10:49:41.605Z,1213.00
2024-03-05T10:50:42.254Z,1208.00
2024-03-05T10:51:41.610Z,1208.00
2024-03-05T10:52:41.652Z,1211.00
2024-03-05T10:53:41.577Z,1202.00
2024-03-05T10:54:41.589Z,1216.00
2024-03-05T10:55:42.427Z,1203.00
2024-03-05T10:57:41.575Z,1215.00
2024-03-05T10:58:41.709Z,1233.00
2024-03-05T10:59:41.791Z,1282.00
2024-03-05T11:00:41.767Z,1314.00
2024-03-05T11:01:42.579Z,1320.00
2024-03-05T11:02:41.809Z,1312.00
2024-03-05T11:03:41.884Z,1318.00
2024-03-05T11:04:41.979Z,1321.00
2024-03-05T11:05:42.170Z,1317.00
2024-03-05T11:06:42.038Z,1328.00
2024-03-05T11:07:42.060Z,1327.00
2024-03-05T11:08:42.123Z,1338.00
2024-03-05T11:09:42.175Z,1346.00
2024-03-05T11:10:42.288Z,1354.00
2024-03-05T11:11:42.276Z,1371.00
2024-03-05T11:12:42.317Z,1370.00
2024-03-05T11:13:42.522Z,1390.00
2024-03-05T11:14:42.448Z,1392.00
2024-03-05T11:15:42.481Z,1402.00
2024-03-05T11:16:42.593Z,1417.00
2024-03-05T11:17:42.652Z,1444.00
2024-03-05T11:18:42.634Z,1453.00
2024-03-05T11:19:42.750Z,1466.00
2024-03-05T11:20:42.768Z,1465.00
2024-03-05T11:21:42.849Z,1476.00
2024-03-05T11:22:42.858Z,1480.00
2024-03-05T11:23:42.876Z,1487.00
2024-03-05T11:24:42.939Z,1493.00
2024-03-05T11:25:43.015Z,1503.00
2024-03-05T11:26:43.043Z,1507.00
2024-03-05T11:27:43.078Z,1526.00
2024-03-05T11:28:43.161Z,1536.00
2024-03-05T11:29:43.191Z,1550.00
2024-03-05T11:30:43.233Z,1566.00
2024-03-05T11:31:43.287Z,1568.00
2024-03-05T11:32:43.345Z,1588.00
2024-03-05T11:33:43.353Z,1587.00
2024-03-05T11:34:43.456Z,1583.00
2024-03-05T11:35:43.448Z,1582.00
2024-03-05T11:36:43.485Z,1595.00
2024-03-05T11:37:43.535Z,1603.00
2024-03-05T11:38:43.575Z,1605.00
2024-03-05T11:39:43.657Z,1625.00
2024-03-05T11:40:43.923Z,1616.00
2024-03-05T11:41:43.677Z,1635.00
2024-03-05T11:42:43.735Z,1634.00
2024-03-05T11:43:43.797Z,1631.00
2024-03-05T11:44:43.814Z,1643.00
2024-03-05T11:45:43.823Z,1641.00
2024-03-05T11:46:43.916Z,1644.00
2024-03-05T11:47:43.955Z,1642.00
2024-03-05T11:48:43.962Z,1646.00
2024-03-05T11:49:44.012Z,1645.00
2024-03-05T11:50:44.040Z,1644.00
2024-03-05T11:51:44.072Z,1643.00
2024-03-05T11:52:44.135Z,1649.00
2024-03-05T11:53:44.138Z,1654.00
2024-03-05T11:54:44.184Z,1640.00
2024-03-05T11:55:44.266Z,1653.00
2024-03-05T11:56:44.295Z,1658.00
2024-03-05T11:57:44.331Z,1648.00
2024-03-05T11:58:44.459Z,1659.00
2024-03-05T11:59:44.422Z,1654.00
2024-03-05T12:00:44.492Z,1665.00
2024-03-05T12:01:44.616Z,1662.00
2024-03-05T12:02:44.676Z,1667.00
2024-03-05T12:03:44.611Z,1663.00
2024-03-05T12:04:44.686Z,1662.00
2024-03-05T12:05:44.917Z,1667.00
2024-03-05T12:06:45.020Z,1651.00
2024-03-05T12:07:44.897Z,1662.00
2024-03-05T12:08:44.860Z,1669.00
2024-03-05T12:09:44.908Z,1664.00
2024-03-05T12:10:45.030Z,1659.00
2024-03-05T12:11:45.045Z,1671.00
2024-03-05T12:12:45.077Z,1660.00
2024-03-05T12:13:45.124Z,1672.00
2024-03-05T12:14:45.175Z,1662.00
2024-03-05T12:15:45.211Z,1666.00
2024-03-05T12:16:45.310Z,1670.00
2024-03-05T12:17:45.355Z,1654.00
2024-03-05T12:18:45.367Z,1654.00
2024-03-05T12:19:45.452Z,1666.00
2024-03-05T12:20:45.482Z,1661.00
2024-03-05T12:21:45.519Z,1662.00